Latest Weather Observations for Yanakie

IDV60801

Issued at 8:35 pm EDT Saturday 29 November 2014 (issued every 30 minutes, with the page automatically refreshed every 10 minutes)

About weather observations | Map of weather stations | Latest weather observations for VIC | Other Formats
Station Details ID: 085301 Name: YANAKIE Lat: -38.81 Lon: 146.19 Height: 13.3 m
Data from the previous 72 hours. | See also: Recent months at Yanakie
Date/Time
EDT
Temp
°C
App
Temp
°C
Dew
Point
Rel
Hum
%
Delta-T
°C
Wind Press
QNH
hPa
Press
MSL
hPa
Rain
since 9 am
mm
Dir
 
Spd
km/h
Gust
km/h
Spd
kts
Gust
kts
29/08:30pm 16.4 14.7 14.8 90 0.9 E 17 32 9 17 1013.8 1013.8 0.0
29/08:00pm 16.9 15.2 14.7 87 1.3 E 17 30 9 16 1013.6 1013.6 0.0
29/07:30pm 17.6 16.0 14.9 84 1.6 E 17 28 9 15 1013.8 1013.8 0.0
29/07:00pm 18.4 16.6 14.5 78 2.3 E 17 26 9 14 1013.8 1013.8 0.0
29/06:30pm 18.8 16.3 14.1 74 2.7 E 20 30 11 16 1014.0 1014.0 0.0
29/06:00pm 19.1 16.7 14.4 74 2.7 E 20 32 11 17 1014.0 1014.0 0.0
29/05:30pm 19.6 16.8 14.4 72 3.0 ENE 22 33 12 18 1014.0 1014.0 0.0
29/05:00pm 20.1 17.4 13.6 66 3.7 E 20 32 11 17 1014.0 1014.0 0.0
29/04:30pm 20.7 18.2 13.4 63 4.2 E 19 30 10 16 1013.9 1013.9 0.0
29/04:00pm 20.7 17.9 13.2 62 4.3 E 20 32 11 17 1014.1 1014.1 0.0
29/03:30pm 21.5 19.3 13.2 59 4.8 E 17 28 9 15 1014.2 1014.2 0.0
29/03:00pm 21.3 18.5 12.7 58 4.9 E 19 30 10 16 1014.4 1014.4 0.0
29/02:30pm 21.9 19.4 12.2 54 5.5 E 17 24 9 13 1014.7 1014.7 0.0
29/02:00pm 21.6 18.9 11.6 53 5.6 ESE 17 26 9 14 1015.1 1015.1 0.0
29/01:30pm 21.3 17.8 8.9 45 6.6 ESE 17 24 9 13 1015.4 1015.4 0.0
29/01:00pm 20.8 17.5 9.7 49 5.9 ESE 17 26 9 14 1015.7 1015.7 0.0
29/12:30pm 20.4 18.2 13.4 64 4.0 E 17 26 9 14 1015.7 1015.7 0.0
29/12:00pm 19.9 18.3 13.8 68 3.5 E 15 26 8 14 1016.2 1016.2 0.0
29/11:30am 19.2 17.6 13.8 71 3.1 E 15 22 8 12 1016.6 1016.6 0.0
29/11:00am 18.4 16.6 13.3 72 2.9 E 15 28 8 15 1017.1 1017.1 0.0
29/10:30am 18.2 16.0 13.3 73 2.8 ENE 17 24 9 13 1017.3 1017.3 0.0
29/10:00am 17.3 15.3 12.6 74 2.6 ENE 15 24 8 13 1017.5 1017.5 0.0
29/09:30am 17.5 16.2 13.6 78 2.2 ENE 13 20 7 11 1017.8 1017.8 0.0
29/09:00am 16.1 14.3 13.2 83 1.6 ENE 15 22 8 12 1018.0 1018.0 0.0
29/08:30am 15.7 14.7 13.5 87 1.2 E 11 17 6 9 1018.2 1018.2 0.0
29/08:00am 15.3 14.8 13.8 91 0.8 E 9 15 5 8 1018.3 1018.3 0.0
29/07:30am 14.7 14.1 13.6 93 0.6 E 9 15 5 8 1018.2 1018.2 0.0
29/07:00am 14.6 15.0 13.8 95 0.4 E 4 11 2 6 1017.9 1017.9 0.0
29/06:30am 12.0 12.4 11.2 95 0.4 CALM 0 2 0 1 1018.1 1018.1 0.0
29/06:00am 10.5 10.5 9.7 95 0.4 CALM 0 0 0 0 1018.0 1018.0 0.0
29/05:30am 10.3 10.2 9.5 95 0.4 CALM 0 0 0 0 1017.7 1017.7 0.0
29/05:00am 9.9 9.7 9.0 94 0.4 CALM 0 0 0 0 1017.7 1017.7 0.0
29/04:30am 10.5 9.3 9.6 94 0.5 SE 6 7 3 4 1017.2 1017.2 0.0
29/04:00am 10.7 10.3 9.8 94 0.5 SSE 2 4 1 2 1017.4 1017.4 0.0
29/03:30am 10.8 10.0 9.7 93 0.6 SSE 4 6 2 3 1017.5 1017.5 0.0
29/03:00am 12.3 11.4 11.2 93 0.6 ESE 7 11 4 6 1017.6 1017.6 0.0
29/02:30am 12.2 11.4 11.1 93 0.6 ESE 6 7 3 4 1017.8 1017.8 0.0
29/02:00am 12.4 11.6 11.1 92 0.7 ESE 6 7 3 4 1018.0 1018.0 0.0
29/01:30am 13.0 12.2 11.6 91 0.7 ENE 7 11 4 6 1018.3 1018.3 0.0
29/01:00am 12.8 12.0 11.2 90 0.8 NE 6 11 3 6 1018.7 1018.7 0.0
29/12:30am 13.2 12.3 11.4 89 1.0 ENE 7 11 4 6 1019.1 1019.1 0.0
29/12:00am 13.2 12.3 11.3 88 1.0 ENE 7 13 4 7 1019.5 1019.5 0.0
 
Date/Time
EDT
Temp
°C
App
Temp
°C
Dew
Point
Rel
Hum
%
Delta-T
°C
Wind Press
QNH
hPa
Press
MSL
hPa
Rain
since 9 am
mm
Dir
 
Spd
km/h
Gust
km/h
Spd
kts
Gust
kts
28/11:30pm 13.0 12.0 11.1 88 1.0 ENE 7 11 4 6 1019.9 1019.9 0.0
28/11:00pm 13.1 12.1 11.0 87 1.1 ENE 7 11 4 6 1020.2 1020.2 0.0
28/10:30pm 14.3 13.6 12.0 86 1.2 ENE 7 15 4 8 1020.6 1020.6 0.0
28/10:00pm 14.7 14.1 12.2 85 1.4 E 7 9 4 5 1020.7 1020.7 0.0
28/09:30pm 14.6 13.9 12.1 85 1.4 E 7 11 4 6 1020.6 1020.6 0.0
28/09:00pm 13.9 13.5 11.2 84 1.4 SSE 4 7 2 4 1020.6 1020.6 0.0
28/08:30pm 13.9 13.4 10.9 82 1.6 S 4 6 2 3 1020.8 1020.8 0.0
28/08:00pm 14.4 13.0 10.8 79 1.9 S 9 13 5 7 1020.7 1020.7 0.0
28/07:30pm 14.8 13.0 10.8 77 2.1 SSW 11 13 6 7 1020.6 1020.6 0.0
28/07:00pm 15.2 13.0 10.8 75 2.3 SSW 13 19 7 10 1020.6 1020.6 0.0
28/06:30pm 16.4 14.1 11.6 73 2.6 SSW 15 19 8 10 1020.2 1020.2 0.0
28/06:00pm 16.8 14.8 11.5 71 2.9 SSW 13 20 7 11 1020.2 1020.2 0.0
28/05:30pm 17.5 15.7 12.2 71 2.9 SSW 13 17 7 9 1020.2 1020.2 0.0
28/05:00pm 18.0 16.5 12.0 68 3.3 SSW 11 17 6 9 1020.2 1020.2 0.0
28/04:30pm 17.9 16.2 12.4 70 3.1 SSW 13 19 7 10 1020.3 1020.3 0.0
28/04:00pm 17.8 15.6 12.0 69 3.2 SSW 15 22 8 12 1020.5 1020.5 0.0
28/03:30pm 18.0 15.8 12.2 69 3.2 SSW 15 20 8 11 1021.0 1021.0 0.0
28/03:00pm 18.0 15.6 12.5 70 3.0 SSW 17 22 9 12 1021.3 1021.3 0.0
28/02:30pm 18.4 16.4 12.8 70 3.1 SSW 15 22 8 12 1021.4 1021.4 0.0
28/02:00pm 18.2 15.3 12.4 69 3.2 SSW 19 26 10 14 1022.0 1022.0 0.0
28/01:30pm 18.3 15.3 12.7 70 3.1 SSW 20 28 11 15 1022.2 1022.2 0.0
28/01:00pm 18.6 15.7 12.8 69 3.2 SSW 20 28 11 15 1022.6 1022.6 0.0
28/12:30pm 19.2 17.4 13.4 69 3.3 WSW 15 24 8 13 1022.7 1022.7 0.0
28/12:00pm 18.5 17.2 12.5 68 3.3 W 11 19 6 10 1022.7 1022.7 0.0
28/11:30am 16.9 15.3 11.4 70 3.0 WNW 11 20 6 11 1023.1 1023.1 0.0
28/11:00am 16.5 14.6 11.9 74 2.5 NW 13 20 7 11 1023.3 1023.3 0.0
28/10:30am 15.8 13.5 11.6 76 2.3 NW 15 20 8 11 1023.4 1023.4 0.0
28/10:00am 14.9 13.2 11.1 78 2.0 WNW 11 15 6 8 1023.7 1023.7 0.0
28/09:30am 14.7 12.5 10.9 78 2.0 W 13 19 7 10 1023.7 1023.7 0.0
28/09:00am 13.9 12.7 10.3 79 1.9 N 7 13 4 7 1023.8 1023.8 0.0
28/08:30am 13.3 11.1 10.7 84 1.4 N 13 19 7 10 1023.7 1023.7 0.0
28/08:00am 12.4 10.2 10.8 90 0.8 N 13 17 7 9 1023.7 1023.7 0.0
28/07:30am 11.6 9.7 10.5 93 0.6 N 11 15 6 8 1023.7 1023.7 0.0
28/07:00am 11.0 9.9 10.1 94 0.5 N 6 9 3 5 1023.6 1023.6 0.0
28/06:30am 10.4 9.2 9.5 94 0.5 N 6 9 3 5 1023.3 1023.3 0.0
28/06:00am 9.9 8.4 9.0 94 0.4 N 7 9 4 5 1023.0 1023.0 0.0
28/05:30am 9.6 8.6 8.7 94 0.4 NNW 4 7 2 4 1022.8 1022.8 0.0
28/05:00am 9.5 8.0 8.6 94 0.4 NNW 6 7 3 4 1022.6 1022.6 0.0
28/04:30am 10.5 9.1 9.6 94 0.5 NNW 7 11 4 6 1022.5 1022.5 0.0
28/04:00am 11.0 10.0 10.2 95 0.4 NW 6 7 3 4 1022.5 1022.5 0.0
28/03:30am 10.7 9.4 9.9 95 0.4 NW 7 11 4 6 1022.7 1022.7 0.0
28/03:00am 9.5 7.9 8.7 95 0.4 NNW 7 9 4 5 1022.7 1022.7 0.0
28/02:30am 9.2 7.7 8.4 95 0.4 N 6 9 3 5 1022.9 1022.9 0.0
28/02:00am 6.9 6.0 6.2 95 0.3 CALM 0 0 0 0 1023.1 1023.1 0.0
28/01:30am 5.6 4.4 4.6 93 0.4 CALM 0 0 0 0 1023.2 1023.2 0.0
28/01:00am 6.2 5.1 5.2 93 0.4 CALM 0 0 0 0 1023.7 1023.7 0.0
28/12:30am 7.0 4.9 5.9 93 0.5 N 6 9 3 5 1024.0 1024.0 0.0
28/12:00am 7.2 5.5 6.1 93 0.5 N 4 7 2 4 1024.1 1024.1 0.0
 
Date/Time
EDT
Temp
°C
App
Temp
°C
Dew
Point
Rel
Hum
%
Delta-T
°C
Wind Press
QNH
hPa
Press
MSL
hPa
Rain
since 9 am
mm
Dir
 
Spd
km/h
Gust
km/h
Spd
kts
Gust
kts
27/11:30pm 8.2 6.2 7.1 93 0.5 N 7 11 4 6 1024.5 1024.5 0.0
27/11:00pm 6.8 5.8 5.4 91 0.6 CALM 0 0 0 0 1024.4 1024.4 0.0
27/10:30pm 7.8 5.6 6.4 91 0.6 WNW 7 11 4 6 1024.5 1024.5 0.0
27/10:00pm 7.2 5.8 5.5 89 0.8 NNE 2 6 1 3 1024.6 1024.6 0.0
27/09:30pm 8.9 6.9 7.0 88 0.9 NW 7 9 4 5 1024.6 1024.6 0.0
27/09:00pm 10.0 7.8 7.8 86 1.1 WSW 9 11 5 6 1024.5 1024.5 0.0
27/08:30pm 11.0 8.5 8.1 82 1.4 WSW 11 13 6 7 1024.5 1024.5 0.0
27/08:00pm 12.2 9.3 8.3 77 1.9 SW 13 17 7 9 1024.4 1024.4 0.0
27/07:30pm 13.6 10.2 9.1 74 2.3 SW 17 20 9 11 1024.5 1024.5 0.0
27/07:00pm 14.4 10.7 9.4 72 2.6 SW 19 22 10 12 1024.4 1024.4 0.0
27/06:30pm 15.2 12.3 9.8 70 2.8 SW 15 20 8 11 1024.4 1024.4 0.0
27/06:00pm 15.4 12.5 9.7 69 2.9 SW 15 20 8 11 1024.3 1024.3 0.0
27/05:30pm 15.9 12.7 10.0 68 3.1 SW 17 24 9 13 1024.3 1024.3 0.0
27/05:00pm 16.3 13.2 10.4 68 3.1 SW 17 22 9 12 1024.5 1024.5 0.0
27/04:30pm 16.1 12.4 10.0 67 3.2 SW 20 28 11 15 1024.7 1024.7 0.0
27/04:00pm 16.3 12.7 9.7 65 3.4 SW 19 28 10 15 1025.0 1025.0 0.0
27/03:30pm 16.1 12.5 10.0 67 3.2 SSW 19 26 10 14 1025.1 1025.1 0.0
27/03:00pm 15.9 12.2 9.3 65 3.4 SSW 19 30 10 16 1025.2 1025.2 0.0
27/02:30pm 16.5 12.8 10.1 66 3.4 SSW 20 28 11 15 1025.2 1025.2 0.0
27/02:00pm 16.9 13.5 10.5 66 3.4 SW 19 28 10 15 1025.5 1025.5 0.0
27/01:30pm 16.4 12.6 9.8 65 3.5 SW 20 28 11 15 1025.8 1025.8 0.0
27/01:00pm 16.6 13.0 10.0 65 3.5 SSW 19 28 10 15 1025.7 1025.7 0.0
27/12:30pm 16.0 11.7 9.4 65 3.4 SW 22 30 12 16 1025.8 1025.8 0.0
27/12:00pm 16.1 12.5 9.8 66 3.3 SSW 19 30 10 16 1025.9 1025.9 0.0
27/11:30am 16.0 12.2 9.7 66 3.3 SW 20 30 11 16 1026.0 1026.0 0.0
27/11:00am 15.5 11.5 9.0 65 3.3 SW 20 30 11 16 1026.0 1026.0 0.0
27/10:30am 15.7 11.8 9.4 66 3.3 SW 20 30 11 16 1025.9 1025.9 0.0
27/10:00am 14.8 10.7 8.7 67 3.1 WSW 20 30 11 16 1025.8 1025.8 0.0
27/09:30am 14.4 10.4 8.4 67 3.0 WSW 19 26 10 14 1025.7 1025.7 0.0
27/09:00am 14.1 10.5 8.5 69 2.8 SW 17 24 9 13 1025.8 1025.8 0.0
27/08:30am 13.3 9.2 8.0 70 2.6 SW 19 28 10 15 1025.8 1025.8 0.0
27/08:00am 12.9 9.2 7.8 71 2.5 WSW 17 22 9 12 1025.4 1025.4 0.0
27/07:30am 12.5 8.7 7.4 71 2.5 SW 17 22 9 12 1025.0 1025.0 0.0
27/07:00am 12.2 8.3 7.1 71 2.4 SSW 17 24 9 13 1024.7 1024.7 0.0
27/06:30am 11.9 7.6 7.0 72 2.3 SW 19 24 10 13 1024.5 1024.5 0.0
27/06:00am 11.7 7.7 6.8 72 2.3 SW 17 24 9 13 1024.2 1024.2 0.0
27/05:30am 11.5 7.9 6.8 73 2.2 SW 15 24 8 13 1023.8 1023.8 0.0
27/05:00am 11.5 7.1 6.4 71 2.4 SW 19 26 10 14 1023.5 1023.5 0.0
27/04:30am 11.9 7.5 6.4 69 2.6 WSW 19 24 10 13 1023.4 1023.4 0.0
27/04:00am 12.1 7.8 6.8 70 2.5 SW 19 26 10 14 1023.2 1023.2 0.0
27/03:30am 12.1 7.6 6.8 70 2.5 SSW 20 30 11 16 1023.1 1023.1 0.0
27/03:00am 12.1 8.1 6.8 70 2.5 SSW 17 24 9 13 1023.1 1023.1 0.0
27/02:30am 12.1 8.2 7.0 71 2.4 SW 17 20 9 11 1023.3 1023.3 0.0
27/02:00am 12.1 7.6 6.8 70 2.5 SSW 20 28 11 15 1023.5 1023.5 0.0
27/01:30am 12.4 7.9 6.9 69 2.6 SW 20 26 11 14 1023.5 1023.5 0.0
27/01:00am 12.4 8.2 7.3 71 2.5 WSW 19 28 10 15 1023.8 1023.8 0.0
27/12:30am 12.4 8.1 7.1 70 2.6 SW 19 26 10 14 1023.7 1023.7 0.0
27/12:00am 12.5 8.1 7.2 70 2.5 SW 20 28 11 15 1023.7 1023.7 0.0
 
Date/Time
EDT
Temp
°C
App
Temp
°C
Dew
Point
Rel
Hum
%
Delta-T
°C
Wind Press
QNH
hPa
Press
MSL
hPa
Rain
since 9 am
mm
Dir
 
Spd
km/h
Gust
km/h
Spd
kts
Gust
kts
26/11:30pm 12.7 8.2 7.0 68 2.7 WSW 20 26 11 14 1023.8 1023.8 0.0
26/11:00pm 12.6 7.7 7.1 69 2.6 SW 22 30 12 16 1023.7 1023.7 0.0
26/10:30pm 12.7 8.5 7.4 70 2.6 WSW 19 28 10 15 1023.6 1023.6 0.0
26/10:00pm 12.5 7.2 6.8 68 2.7 SW 24 32 13 17 1023.3 1023.3 0.0
26/09:30pm 12.4 7.5 6.7 68 2.7 WSW 22 32 12 17 1023.1 1023.1 0.0
26/09:00pm 12.7 7.5 7.4 70 2.6 WSW 24 32 13 17 1022.8 1022.8 0.0

Other Formats:

Comma delimited format used in spreadsheet applications
http://www.bom.gov.au/fwo/IDV60801/IDV60801.94911.axf

JavaScript Object Notation format (JSON) in row-major order
http://www.bom.gov.au/fwo/IDV60801/IDV60801.94911.json